Latest Weather Observations for Lord Howe Island

IDN60801

Issued at 6:33 pm EST Wednesday 24 August 2016 (issued every 30 minutes, with the page automatically refreshed every 10 minutes)

About weather observations | Map of weather stations | Latest weather observations for NSW | Other Formats
Station Details ID: 200839 Name: LORD HOWE ISLAND AERO Lat: -31.54 Lon: 159.08 Height: 5.0 m
Data from the previous 72 hours. | See also: Recent months at Lord Howe Island
Date/Time
EST
Temp
°C
App
Temp
°C
Dew
Point
°C
Rel
Hum
%
Delta-T
°C
Wind Press
QNH
hPa
Press
MSL
hPa
Rain since
9am
mm
Dir  Spd
km/h
Gust
km/h
Spd
kts
Gust
kts
24/06:30pm 16.1 12.2 15.4 96 0.4 E 30 46 16 25 1004.5 - 34.4
24/06:00pm 16.1 14.2 15.2 94 0.5 ESE 19 37 10 20 1005.5 - 27.6
24/05:54pm 16.1 12.4 15.1 94 0.6 ESE 28 46 15 25 1005.2 - 26.2
24/05:47pm 16.1 10.7 14.9 93 0.7 E 37 50 20 27 1004.9 - 24.8
24/05:33pm 16.3 10.2 15.1 93 0.7 E 41 50 22 27 1004.8 - 23.4
24/05:30pm 16.3 10.3 15.4 94 0.5 E 41 50 22 27 1004.8 1004.8 22.6
24/05:00pm 16.4 9.7 15.2 93 0.7 E 44 54 24 29 1005.2 - 20.6
24/04:39pm 16.3 10.5 14.9 91 0.8 E 39 48 21 26 1005.7 - 19.2
24/04:30pm 16.4 11.5 15.2 93 0.7 E 35 46 19 25 1005.8 - 18.4
24/04:00pm 16.3 10.9 14.9 91 0.8 E 37 46 20 25 1006.5 - 18.0
24/03:30pm 16.1 11.0 14.7 91 0.8 E 35 44 19 24 1006.9 - 17.2
24/03:00pm 16.0 11.9 15.0 94 0.6 E 30 41 16 22 1007.8 - 16.0
24/02:46pm 15.8 12.0 14.6 93 0.7 E 28 37 15 20 1008.4 - 15.2
24/02:30pm 15.9 11.1 14.7 93 0.7 E 33 41 18 22 1008.3 1008.3 14.4
24/02:00pm 15.9 11.2 14.9 94 0.6 E 33 41 18 22 1008.7 - 13.4
24/01:30pm 15.9 11.6 14.3 90 0.9 E 30 35 16 19 1009.7 - 12.0
24/01:19pm 15.9 12.5 14.7 93 0.7 E 26 32 14 17 1009.9 - 11.6
24/01:00pm 15.7 13.3 14.5 93 0.7 E 20 26 11 14 1010.5 - 10.6
24/12:30pm 15.5 12.4 14.6 94 0.5 E 24 32 13 17 1010.8 - 9.2
24/12:00pm 15.4 12.6 14.2 92 0.7 E 22 28 12 15 1011.3 - 8.0
24/11:30am 15.6 13.4 14.4 93 0.7 E 19 24 10 13 1012.0 1012.0 6.4
24/11:00am 15.1 12.7 13.9 92 0.7 E 19 26 10 14 1012.1 - 5.2
24/10:30am 15.2 12.2 13.8 91 0.8 E 22 24 12 13 1013.2 - 4.0
24/10:00am 15.3 13.2 13.7 90 0.9 E 17 22 9 12 1013.9 - 2.8
24/09:30am 15.2 13.9 13.6 90 0.9 ESE 13 20 7 11 1013.8 - 2.2
24/09:00am 15.5 14.1 13.5 88 1.1 ESE 13 20 7 11 1014.3 - 1.0
24/08:30am 15.7 13.9 13.4 86 1.3 ESE 15 20 8 11 1014.0 1014.0 30.8
24/08:00am 15.7 14.2 13.0 84 1.5 ESE 13 19 7 10 1013.9 - 30.2
24/07:30am 15.5 14.7 12.8 84 1.5 ESE 9 17 5 9 1014.3 - 29.4
24/07:00am 14.5 14.3 12.9 90 0.9 SE 6 9 3 5 1014.1 - 29.2
24/06:30am 14.3 15.1 12.7 90 0.9 CALM 0 0 0 0 1014.2 - 29.0
24/06:00am 14.4 14.0 12.9 91 0.8 S 7 9 4 5 1013.8 - 28.4
24/05:30am 14.9 14.4 12.7 87 1.2 SSE 7 9 4 5 1013.0 1013.0 28.2
24/05:00am 16.2 17.3 15.7 97 0.3 ESE 4 7 2 4 1013.0 - 28.0
24/04:30am 16.3 18.1 15.6 96 0.4 CALM 0 0 0 0 1012.6 - 27.8
24/04:00am 16.4 18.2 15.5 94 0.5 CALM 0 0 0 0 1012.1 - 27.8
24/03:30am 16.5 18.3 15.6 94 0.5 CALM 0 0 0 0 1012.2 - 27.8
24/03:00am 16.5 18.3 15.6 94 0.5 CALM 0 0 0 0 1012.7 - 27.8
24/02:30am 16.7 18.6 15.7 94 0.6 CALM 0 0 0 0 1012.9 1012.9 27.8
24/02:00am 17.1 18.7 15.9 93 0.7 SE 2 7 1 4 1013.0 - 27.8
24/01:30am 17.6 19.0 16.3 92 0.8 SSE 4 7 2 4 1013.3 - 27.8
24/01:00am 17.9 18.3 16.4 91 0.9 SSW 9 11 5 6 1013.8 - 27.8
24/12:30am 18.1 19.0 16.6 91 0.9 SSW 7 11 4 6 1013.7 - 27.8
24/12:00am 18.3 18.4 16.6 90 1.0 SW 11 15 6 8 1013.8 - 27.8
 
Date/Time
EST
Temp
°C
App
Temp
°C
Dew
Point
°C
Rel
Hum
%
Delta-T
°C
Wind Press
QNH
hPa
Press
MSL
hPa
Rain since
9am
mm
Dir  Spd
km/h
Gust
km/h
Spd
kts
Gust
kts
23/11:46pm 18.3 18.8 16.6 90 1.0 SW 9 15 5 8 1013.5 - 27.8
23/11:30pm 18.3 18.5 16.8 91 0.9 WSW 11 17 6 9 1014.0 1014.0 27.8
23/11:00pm 17.9 18.0 16.6 92 0.8 SSW 11 17 6 9 1014.0 - 27.8
23/10:38pm 17.9 17.7 16.6 92 0.8 SW 13 20 7 11 1014.2 - 27.8
23/10:30pm 17.5 17.0 16.0 91 0.9 SW 13 20 7 11 1014.2 - 27.8
23/10:18pm 17.1 16.2 15.9 93 0.7 SW 15 19 8 10 1014.2 - 27.8
23/10:06pm 16.9 16.4 15.9 94 0.6 SW 13 19 7 10 1014.5 - 27.8
23/10:00pm 16.8 15.5 15.8 94 0.6 WSW 17 26 9 14 1014.6 - 27.6
23/09:30pm 17.6 15.7 16.8 95 0.5 WSW 22 32 12 17 1014.6 - 22.0
23/09:29pm 17.6 15.8 16.9 96 0.4 WSW 22 32 12 17 1014.6 - 22.0
23/09:24pm 17.7 15.8 16.7 94 0.6 WSW 22 28 12 15 1014.6 - 21.2
23/09:00pm 17.5 14.5 16.7 95 0.5 WSW 28 35 15 19 1014.4 - 20.2
23/08:30pm 19.2 18.2 17.6 90 1.0 NW 19 43 10 23 1014.3 1014.3 15.6
23/08:22pm 19.2 18.2 17.6 90 1.0 NW 19 43 10 23 1014.5 - 15.2
23/08:00pm 19.2 17.6 16.5 84 1.6 NW 20 37 11 20 1014.4 - 15.2
23/07:52pm 19.0 17.4 16.1 83 1.7 NNW 19 33 10 18 1014.2 - 15.2
23/07:36pm 18.9 17.7 17.1 89 1.1 NNW 19 35 10 19 1014.3 - 15.2
23/07:30pm 18.8 17.6 17.1 90 1.0 NNW 19 43 10 23 1014.4 - 15.2
23/07:00pm 18.5 17.4 17.3 93 0.7 N 19 35 10 19 1014.3 - 4.8
23/06:56pm 18.7 17.9 17.2 91 0.9 NNW 17 35 9 19 1014.4 - 3.8
23/06:30pm 19.1 18.3 17.1 88 1.2 NNW 17 35 9 19 1014.2 - 2.6
23/06:15pm 19.2 17.9 16.9 86 1.4 NNW 19 28 10 15 1014.1 - 2.4
23/06:00pm 19.0 18.5 17.0 88 1.2 N 15 33 8 18 1013.9 - 2.4
23/05:36pm 18.8 18.6 16.8 88 1.2 N 13 26 7 14 1013.8 - 2.2
23/05:30pm 18.8 18.3 16.8 88 1.2 N 15 30 8 16 1013.8 1013.8 2.2
23/05:16pm 19.0 18.3 16.3 84 1.6 NNW 15 30 8 16 1013.9 - 2.0
23/05:05pm 18.8 17.8 16.5 86 1.4 NNW 17 35 9 19 1014.0 - 2.0
23/05:00pm 18.9 17.7 16.2 84 1.6 NNW 17 35 9 19 1014.0 - 2.0
23/04:30pm 19.0 17.9 16.3 84 1.6 NNW 17 26 9 14 1013.9 - 1.0
23/04:00pm 19.8 18.4 15.6 77 2.5 N 17 30 9 16 1013.5 - 0.8
23/03:30pm 19.8 18.5 15.8 78 2.4 N 17 32 9 17 1013.4 - 0.8
23/03:00pm 19.9 18.1 15.5 76 2.6 NNW 19 35 10 19 1013.7 - 0.8
23/02:30pm 19.9 18.6 15.7 77 2.5 N 17 35 9 19 1013.7 1013.7 0.8
23/02:00pm 20.2 18.5 15.7 75 2.7 N 19 32 10 17 1013.8 - 0.8
23/01:30pm 20.3 19.8 15.8 75 2.7 NNW 13 20 7 11 1013.9 - 0.8
23/01:00pm 20.7 19.2 16.2 75 2.7 N 19 32 10 17 1014.1 - 0.8
23/12:30pm 20.5 19.4 16.3 77 2.5 N 17 33 9 18 1014.2 - 0.8
23/12:00pm 20.2 19.0 16.0 77 2.5 NNW 17 32 9 17 1014.7 - 0.8
23/11:30am 21.4 20.9 16.8 75 2.8 N 15 28 8 15 1014.8 1014.8 0.8
23/11:00am 20.4 19.9 16.8 80 2.2 NNE 15 37 8 20 1015.0 - 0.8
23/10:30am 19.3 18.7 16.6 84 1.6 N 15 24 8 13 1016.0 - 0.8
23/10:13am 19.3 19.2 17.0 86 1.4 N 13 26 7 14 1016.2 - 0.8
23/10:00am 19.2 18.9 16.5 84 1.6 N 13 26 7 14 1016.3 - 0.6
23/09:30am 19.3 19.3 16.3 83 1.8 N 11 24 6 13 1016.5 - 0.2
23/09:00am 19.7 19.1 15.6 77 2.4 N 13 24 7 13 1016.5 - 0.0
23/08:30am 19.7 19.1 15.6 77 2.4 N 13 20 7 11 1016.8 1016.8 0.0
23/08:00am 19.7 19.3 15.3 76 2.6 N 11 20 6 11 1016.9 - 0.0
23/07:30am 19.8 19.3 15.8 78 2.4 NNE 13 17 7 9 1017.0 - 0.0
23/07:00am 19.1 17.6 15.2 78 2.3 NNE 17 35 9 19 1016.9 - 0.0
23/06:30am 19.0 17.2 14.5 75 2.6 N 17 33 9 18 1016.6 - 0.0
23/06:00am 18.8 16.4 14.3 75 2.6 N 20 32 11 17 1016.7 - 0.0
23/05:30am 18.7 16.4 14.2 75 2.6 N 19 32 10 17 1016.8 1016.8 0.0
23/05:00am 18.6 17.3 13.7 73 2.8 N 13 24 7 13 1016.6 - 0.0
23/04:30am 18.4 16.7 13.5 73 2.8 N 15 28 8 15 1016.5 - 0.0
23/04:00am 18.4 16.2 13.3 72 2.9 NNE 17 28 9 15 1016.3 - 0.0
23/03:30am 18.1 17.1 13.5 74 2.6 N 11 19 6 10 1016.5 - 0.0
23/03:00am 18.4 17.0 13.3 72 2.9 N 13 28 7 15 1016.7 - 0.0
23/02:30am 17.8 16.7 12.0 69 3.2 N 9 15 5 8 1016.9 1016.9 0.0
23/02:00am 18.2 16.5 12.6 70 3.1 N 13 19 7 10 1017.1 - 0.0
23/01:30am 18.1 15.8 11.9 67 3.4 N 15 22 8 12 1017.2 - 0.0
23/01:00am 17.7 16.4 11.2 65 3.5 N 9 15 5 8 1017.7 - 0.0
23/12:30am 17.8 15.4 10.1 60 4.1 N 13 20 7 11 1017.9 - 0.0
23/12:00am 17.4 15.1 8.9 57 4.4 N 11 19 6 10 1018.2 - 0.0
 
Date/Time
EST
Temp
°C
App
Temp
°C
Dew
Point
°C
Rel
Hum
%
Delta-T
°C
Wind Press
QNH
hPa
Press
MSL
hPa
Rain since
9am
mm
Dir  Spd
km/h
Gust
km/h
Spd
kts
Gust
kts
22/11:30pm 17.6 14.8 8.7 56 4.6 N 13 20 7 11 1018.0 1018.0 0.0
22/11:00pm 17.9 15.0 8.1 52 5.0 N 13 22 7 12 1018.4 - 0.0
22/10:30pm 17.4 14.4 7.9 53 4.8 N 13 19 7 10 1018.7 - 0.0
22/10:00pm 17.0 14.4 9.5 61 3.9 N 13 20 7 11 1018.7 - 0.0
22/09:30pm 17.1 14.5 9.4 60 4.0 N 13 20 7 11 1018.7 - 0.0
22/09:00pm 17.3 14.9 8.5 56 4.5 N 11 19 6 10 1018.8 - 0.0
22/08:30pm 17.3 14.1 8.3 55 4.6 NNE 15 20 8 11 1019.1 1019.1 0.0
22/08:00pm 17.3 13.9 7.8 53 4.8 NNE 15 24 8 13 1019.0 - 0.0
22/07:30pm 17.1 14.4 7.3 52 4.9 NNE 11 17 6 9 1019.2 - 0.0
22/07:00pm 17.3 14.2 7.3 52 5.0 NNE 13 20 7 11 1019.0 - 0.0
22/06:30pm 17.4 13.8 6.9 50 5.2 NNE 15 20 8 11 1018.8 - 0.0
22/06:00pm 17.2 15.0 7.7 53 4.8 N 9 15 5 8 1018.9 - 0.0
22/05:30pm 17.3 14.5 7.0 50 5.1 N 11 17 6 9 1018.8 1018.8 0.0
22/05:00pm 16.9 14.4 8.0 55 4.5 NNE 11 19 6 10 1018.8 - 0.0
22/04:30pm 17.9 14.5 7.6 51 5.2 NNE 15 20 8 11 1018.6 - 0.0
22/04:00pm 17.9 14.9 7.6 51 5.2 NNE 13 17 7 9 1018.5 - 0.0
22/03:30pm 18.6 14.9 7.8 49 5.5 NNE 17 20 9 11 1018.4 - 0.0
22/03:00pm 19.0 15.3 8.1 49 5.6 NNE 17 22 9 12 1018.4 - 0.0
22/02:30pm 19.3 15.2 7.8 47 5.9 NNE 19 22 10 12 1018.4 1018.4 0.0
22/02:00pm 19.3 15.6 7.8 47 5.9 NNE 17 24 9 13 1018.4 - 0.0
22/01:30pm 19.5 16.4 8.8 50 5.6 NNE 15 19 8 10 1018.6 - 0.0
22/01:00pm 19.5 17.3 9.2 51 5.4 NE 11 17 6 9 1019.2 - 0.0
22/12:30pm 19.4 17.7 10.0 54 5.0 NE 9 13 5 7 1019.6 - 0.0
22/12:00pm 19.1 17.0 9.9 55 4.9 ENE 11 15 6 8 1019.8 - 0.0
22/11:30am 19.0 16.2 10.0 56 4.8 ENE 15 20 8 11 1020.1 1020.1 0.0
22/11:00am 19.5 16.6 11.0 58 4.6 NE 17 19 9 10 1020.4 - 0.0
22/10:30am 19.2 16.3 10.9 58 4.5 NE 17 20 9 11 1020.9 - 0.0
22/10:00am 18.1 16.0 11.1 63 3.8 ENE 13 20 7 11 1021.0 - 0.0
22/09:30am 17.9 15.0 9.5 58 4.4 E 15 20 8 11 1021.0 - 0.0
22/09:00am 18.2 14.9 9.6 57 4.5 E 17 22 9 12 1021.0 - 0.0
22/08:30am 17.6 14.7 9.6 59 4.2 E 15 19 8 10 1021.1 1021.1 0.0
22/08:00am 17.3 14.8 9.6 60 4.0 E 13 17 7 9 1020.9 - 0.0
22/07:30am 17.0 14.1 9.7 62 3.8 E 15 17 8 9 1020.7 - 0.0
22/07:00am 16.7 15.0 9.8 63 3.6 E 9 17 5 9 1020.6 - 0.0
22/06:30am 15.8 14.4 9.6 66 3.2 SSE 7 11 4 6 1020.2 - 0.0
22/06:00am 15.8 13.9 9.2 65 3.4 SE 9 13 5 7 1019.9 - 0.0
22/05:30am 15.4 14.2 10.2 71 2.7 SE 7 9 4 5 1019.9 1019.9 0.0
22/05:00am 15.8 14.1 9.8 67 3.1 SSE 9 13 5 7 1019.8 - 0.0
22/04:30am 14.5 12.7 9.4 71 2.6 SE 9 13 5 7 1019.4 - 0.0
22/04:00am 15.5 13.7 9.3 66 3.2 SE 9 11 5 6 1019.3 - 0.0
22/03:30am 13.4 11.9 9.3 76 2.1 SE 7 11 4 6 1019.2 - 0.0
22/03:00am 15.7 13.7 8.8 63 3.5 SE 9 11 5 6 1019.1 - 0.0
22/02:30am 16.0 13.8 9.2 64 3.5 SE 11 13 6 7 1019.2 1019.2 0.0
22/02:00am 12.1 10.2 9.1 82 1.5 SE 9 11 5 6 1019.7 - 0.0
22/01:30am 11.3 11.0 8.7 84 1.3 CALM 0 0 0 0 1020.1 - 0.0
22/01:00am 13.2 11.8 9.7 79 1.8 SE 7 13 4 7 1020.3 - 0.0
22/12:30am 15.9 13.7 9.3 65 3.4 SE 11 15 6 8 1020.1 - 0.0
22/12:28am 15.9 13.7 9.3 65 3.4 SE 11 15 6 8 1020.1 - 0.0
22/12:00am 10.9 9.9 8.7 86 1.1 SE 4 7 2 4 1020.2 - 0.0
 
Date/Time
EST
Temp
°C
App
Temp
°C
Dew
Point
°C
Rel
Hum
%
Delta-T
°C
Wind Press
QNH
hPa
Press
MSL
hPa
Rain since
9am
mm
Dir  Spd
km/h
Gust
km/h
Spd
kts
Gust
kts
21/11:30pm 10.2 9.8 8.3 88 0.9 CALM 0 0 0 0 1020.2 1020.2 0.0
21/11:00pm 10.3 9.9 8.2 87 1.0 CALM 0 0 0 0 1019.9 - 0.0
21/10:30pm 11.2 10.9 8.6 84 1.3 CALM 0 6 0 3 1020.0 - 0.0
21/10:00pm 11.0 10.7 8.8 86 1.1 CALM 0 0 0 0 1020.1 - 0.0
21/09:30pm 10.9 10.5 8.2 83 1.3 CALM 0 0 0 0 1020.1 - 0.0
21/09:00pm 10.9 10.6 8.7 86 1.1 CALM 0 0 0 0 1020.1 - 0.0
21/08:30pm 11.0 10.7 8.8 86 1.1 CALM 0 0 0 0 1019.9 1019.9 0.0
21/08:00pm 11.5 11.3 9.1 85 1.2 CALM 0 0 0 0 1019.9 - 0.0
21/07:30pm 11.9 11.7 9.1 83 1.4 CALM 0 0 0 0 1019.7 - 0.0
21/07:00pm 13.6 12.3 9.3 75 2.2 S 6 7 3 4 1019.5 - 0.0
21/06:30pm 14.2 13.7 9.3 72 2.5 S 2 6 1 3 1019.3 - 0.0

Other Formats:

Comma delimited format used in spreadsheet applications
http://www.bom.gov.au/fwo/IDN60801/IDN60801.94995.axf

JavaScript Object Notation format (JSON) in row-major order
http://www.bom.gov.au/fwo/IDN60801/IDN60801.94995.json